Time;durP1;ratioP1;P1;durP2;ratioP2;P2;SDS_P1;SDS_P2;PMS_P1;PMS_P2;Temp;Humidity;BMP_temperature;BMP_pressure;BME280_temperature;BME280_humidity;BME280_pressure;Samples;Min_cycle;Max_cycle;Signal;HPM_P1;HPM_P2
2023/05/25 00:02:08;;;;;;;1.33;0.90;;;;;;;;;;5041031;28;20029;-80
2023/05/25 00:04:34;;;;;;;1.00;0.90;;;;;;;;;;5035771;28;20107;-80
2023/05/25 00:07:00;;;;;;;1.92;1.23;;;;;;;;;;5045304;28;20029;-81
2023/05/25 00:09:26;;;;;;;1.23;0.95;;;;;;;;;;5043125;28;20035;-80
2023/05/25 00:11:52;;;;;;;1.00;0.85;;;;;;;;;;5041969;28;20032;-80
2023/05/25 00:14:19;;;;;;;2.00;1.30;;;;;;;;;;5044263;28;20029;-81
2023/05/25 00:16:47;;;;;;;1.70;0.65;;;;;;;;;;5044641;28;20479;-81
2023/05/25 00:19:13;;;;;;;3.88;1.00;;;;;;;;;;5046038;28;20032;-81
2023/05/25 00:21:40;;;;;;;0.82;0.82;;;;;;;;;;5041250;28;20029;-80
2023/05/25 00:24:06;;;;;;;2.05;1.55;;;;;;;;;;5048071;28;20067;-80
2023/05/25 00:26:32;;;;;;;1.33;1.08;;;;;;;;;;5035570;28;20410;-81
2023/05/25 00:28:59;;;;;;;1.25;0.90;;;;;;;;;;5045964;28;20025;-80
2023/05/25 00:31:26;;;;;;;3.35;1.15;;;;;;;;;;5046931;28;20120;-80
2023/05/25 00:33:52;;;;;;;0.95;0.80;;;;;;;;;;5038596;28;20032;-80
2023/05/25 00:36:17;;;;;;;2.88;0.90;;;;;;;;;;5035713;28;20030;-80
2023/05/25 00:38:43;;;;;;;1.25;0.80;;;;;;;;;;5039967;28;20701;-81
2023/05/25 00:41:09;;;;;;;3.22;0.98;;;;;;;;;;5035051;28;20380;-80
2023/05/25 00:43:35;;;;;;;2.33;0.70;;;;;;;;;;5038115;28;21198;-81
2023/05/25 00:46:02;;;;;;;1.15;1.05;;;;;;;;;;5045118;28;20024;-80
2023/05/25 00:48:28;;;;;;;0.95;0.85;;;;;;;;;;5057345;28;20683;-80
2023/05/25 00:50:58;;;;;;;2.45;0.95;;;;;;;;;;5044330;28;20025;-81
2023/05/25 00:53:27;;;;;;;0.98;0.90;;;;;;;;;;5037672;28;20029;-80
2023/05/25 00:56:02;;;;;;;1.25;0.93;;;;;;;;;;5038486;28;20085;-80
2023/05/25 00:58:33;;;;;;;1.50;0.80;;;;;;;;;;5043134;28;20027;-81
2023/05/25 01:00:59;;;;;;;1.75;0.88;;;;;;;;;;5051436;28;20031;-81
2023/05/25 01:03:28;;;;;;;0.90;0.90;;;;;;;;;;5043886;28;20056;-81
2023/05/25 01:05:54;;;;;;;2.25;1.00;;;;;;;;;;5040472;28;20048;-80
2023/05/25 01:08:24;;;;;;;1.30;1.02;;;;;;;;;;5040323;28;20025;-81
2023/05/25 01:10:51;;;;;;;0.75;0.75;;;;;;;;;;5037170;28;20495;-81
2023/05/25 01:13:18;;;;;;;2.25;1.17;;;;;;;;;;5044903;28;20029;-80
2023/05/25 01:15:45;;;;;;;1.60;0.68;;;;;;;;;;5039642;28;20061;-80
2023/05/25 01:18:15;;;;;;;2.83;1.33;;;;;;;;;;5035886;28;20022;-80
2023/05/25 01:20:56;;;;;;;1.77;0.63;;;;;;;;;;5041868;28;20025;-81
2023/05/25 01:23:27;;;;;;;1.58;1.00;;;;;;;;;;5042369;28;20116;-80
2023/05/25 01:25:56;;;;;;;1.25;1.00;;;;;;;;;;5030200;28;20042;-80
2023/05/25 01:28:24;;;;;;;1.15;0.80;;;;;;;;;;5041902;28;20037;-80
2023/05/25 01:30:54;;;;;;;2.78;1.00;;;;;;;;;;5032708;28;20030;-78
2023/05/25 01:33:23;;;;;;;0.90;0.85;;;;;;;;;;5044757;28;20056;-80
2023/05/25 01:35:50;;;;;;;2.30;1.08;;;;;;;;;;5036684;28;20033;-80
2023/05/25 01:38:16;;;;;;;1.00;0.80;;;;;;;;;;5044324;28;20045;-80
2023/05/25 01:40:42;;;;;;;1.30;0.90;;;;;;;;;;5041113;28;20506;-80
2023/05/25 01:43:08;;;;;;;0.50;0.50;;;;;;;;;;5045074;28;20111;-80
2023/05/25 01:45:35;;;;;;;2.20;0.82;;;;;;;;;;5053634;28;20040;-80
2023/05/25 01:48:21;;;;;;;1.20;0.95;;;;;;;;;;5044449;28;20030;-80
2023/05/25 01:51:07;;;;;;;2.10;0.85;;;;;;;;;;5045363;28;20029;-80
2023/05/25 01:53:40;;;;;;;0.88;0.80;;;;;;;;;;5031730;28;20044;-79
2023/05/25 01:56:10;;;;;;;1.75;1.02;;;;;;;;;;5047638;28;20033;-79
2023/05/25 01:58:41;;;;;;;0.80;0.68;;;;;;;;;;5043946;28;20021;-79
2023/05/25 02:01:13;;;;;;;0.60;0.60;;;;;;;;;;5044986;28;20025;-80
2023/05/25 02:03:40;;;;;;;4.68;1.02;;;;;;;;;;5040815;28;20514;-81
2023/05/25 02:06:07;;;;;;;1.08;0.98;;;;;;;;;;5045137;28;20099;-80
2023/05/25 02:08:33;;;;;;;3.30;0.90;;;;;;;;;;5031964;28;20022;-80
2023/05/25 02:10:59;;;;;;;0.80;0.80;;;;;;;;;;5026926;28;20040;-80
2023/05/25 02:13:25;;;;;;;1.67;0.80;;;;;;;;;;5036479;28;20033;-80
2023/05/25 02:15:52;;;;;;;1.00;0.82;;;;;;;;;;5023273;28;20024;-80
2023/05/25 02:18:18;;;;;;;1.08;0.82;;;;;;;;;;5046225;28;21859;-80
2023/05/25 02:20:44;;;;;;;2.22;0.93;;;;;;;;;;5045588;28;20124;-79
2023/05/25 02:23:10;;;;;;;1.48;0.80;;;;;;;;;;5036410;28;20480;-80
2023/05/25 02:25:36;;;;;;;0.90;0.70;;;;;;;;;;5032448;28;20062;-80
2023/05/25 02:28:03;;;;;;;1.42;1.00;;;;;;;;;;5033958;28;20106;-79
2023/05/25 02:30:29;;;;;;;1.70;1.08;;;;;;;;;;5046882;28;20037;-80
2023/05/25 02:32:55;;;;;;;1.42;1.00;;;;;;;;;;5044907;28;20965;-79
2023/05/25 02:35:21;;;;;;;1.17;0.70;;;;;;;;;;5048061;28;20128;-79
2023/05/25 02:37:47;;;;;;;1.40;1.02;;;;;;;;;;5044940;28;20036;-80
2023/05/25 02:40:13;;;;;;;0.93;0.82;;;;;;;;;;5042149;28;20029;-80
2023/05/25 02:42:39;;;;;;;1.17;1.00;;;;;;;;;;5049876;28;20476;-80
2023/05/25 02:45:09;;;;;;;1.65;1.10;;;;;;;;;;5038335;28;20028;-79
2023/05/25 02:47:35;;;;;;;1.50;0.77;;;;;;;;;;5044525;28;20033;-80
2023/05/25 02:50:01;;;;;;;2.30;1.00;;;;;;;;;;5044435;28;20246;-79
2023/05/25 02:52:29;;;;;;;1.30;1.00;;;;;;;;;;5043307;28;20029;-80
2023/05/25 02:54:55;;;;;;;1.45;1.00;;;;;;;;;;5047960;28;20487;-80
2023/05/25 02:57:22;;;;;;;1.88;1.48;;;;;;;;;;5034594;28;20175;-79
2023/05/25 02:59:48;;;;;;;1.98;0.80;;;;;;;;;;5042224;28;20394;-80
2023/05/25 03:02:17;;;;;;;3.72;0.70;;;;;;;;;;5049098;28;20021;-79
2023/05/25 03:04:44;;;;;;;1.38;1.08;;;;;;;;;;5036584;28;20057;-80
2023/05/25 03:07:10;;;;;;;1.38;0.95;;;;;;;;;;5041847;28;20028;-80
2023/05/25 03:09:36;;;;;;;2.05;0.98;;;;;;;;;;5049600;28;20090;-80
2023/05/25 03:12:02;;;;;;;1.08;0.95;;;;;;;;;;5039980;28;20029;-80
2023/05/25 03:14:28;;;;;;;2.25;1.05;;;;;;;;;;5054236;28;20120;-79
2023/05/25 03:16:55;;;;;;;0.82;0.70;;;;;;;;;;5054764;28;20021;-79
2023/05/25 03:19:21;;;;;;;1.05;0.80;;;;;;;;;;5058369;28;20078;-79
2023/05/25 03:21:46;;;;;;;1.42;1.00;;;;;;;;;;5038266;28;20028;-80
2023/05/25 03:24:12;;;;;;;1.70;0.90;;;;;;;;;;5048763;28;20029;-79
2023/05/25 03:26:38;;;;;;;0.80;0.80;;;;;;;;;;5038612;28;20112;-79
2023/05/25 03:29:05;;;;;;;2.33;1.02;;;;;;;;;;5048230;28;20483;-79
2023/05/25 03:31:31;;;;;;;3.08;1.00;;;;;;;;;;5041305;28;20044;-79
2023/05/25 03:33:58;;;;;;;1.23;1.00;;;;;;;;;;5041367;28;20033;-77
2023/05/25 03:36:26;;;;;;;2.50;0.93;;;;;;;;;;5046023;28;20036;-78
2023/05/25 03:38:53;;;;;;;1.30;0.90;;;;;;;;;;5037156;28;20025;-80
2023/05/25 03:41:19;;;;;;;1.40;1.00;;;;;;;;;;5051773;28;20025;-80
2023/05/25 03:43:45;;;;;;;1.08;1.00;;;;;;;;;;5066950;28;20016;-79
2023/05/25 03:46:11;;;;;;;2.03;1.20;;;;;;;;;;5049295;28;20059;-79
2023/05/25 03:48:37;;;;;;;2.15;0.70;;;;;;;;;;5044436;28;20049;-79
2023/05/25 03:51:03;;;;;;;1.25;0.90;;;;;;;;;;5041700;28;20494;-79
2023/05/25 03:53:30;;;;;;;0.77;0.77;;;;;;;;;;5046213;28;20123;-79
2023/05/25 03:55:56;;;;;;;2.30;1.00;;;;;;;;;;5048680;28;20438;-80
2023/05/25 03:58:22;;;;;;;1.35;0.90;;;;;;;;;;5037820;28;20033;-79
2023/05/25 04:00:48;;;;;;;1.10;1.00;;;;;;;;;;5045045;28;20036;-80
2023/05/25 04:03:14;;;;;;;0.88;0.82;;;;;;;;;;5039461;28;20037;-79
2023/05/25 04:05:40;;;;;;;3.10;0.98;;;;;;;;;;5044967;28;20024;-79
2023/05/25 04:08:07;;;;;;;1.08;0.95;;;;;;;;;;5038165;28;20025;-80
2023/05/25 04:10:33;;;;;;;1.55;0.90;;;;;;;;;;5033695;28;20036;-79
2023/05/25 04:12:59;;;;;;;1.55;1.00;;;;;;;;;;5042771;28;20026;-79
2023/05/25 04:15:25;;;;;;;1.30;0.90;;;;;;;;;;5045258;28;20032;-79
2023/05/25 04:17:51;;;;;;;0.77;0.70;;;;;;;;;;5044903;28;20025;-79
2023/05/25 04:20:17;;;;;;;1.88;0.80;;;;;;;;;;5044982;28;20021;-79
2023/05/25 04:22:43;;;;;;;2.72;0.77;;;;;;;;;;5034750;28;20029;-78
2023/05/25 04:25:10;;;;;;;1.10;1.00;;;;;;;;;;5039441;28;20488;-78
2023/05/25 04:27:36;;;;;;;1.08;0.85;;;;;;;;;;5041486;28;20178;-78
2023/05/25 04:30:02;;;;;;;2.35;0.80;;;;;;;;;;5061689;28;20051;-78
2023/05/25 04:32:31;;;;;;;1.75;0.90;;;;;;;;;;5044100;28;20039;-79
2023/05/25 04:34:57;;;;;;;1.42;0.93;;;;;;;;;;5043223;28;20021;-79
2023/05/25 04:37:27;;;;;;;0.70;0.70;;;;;;;;;;5038529;28;20048;-79
2023/05/25 04:39:53;;;;;;;1.40;0.98;;;;;;;;;;5034903;28;20059;-78
2023/05/25 04:42:22;;;;;;;0.82;0.82;;;;;;;;;;5044574;28;20448;-78
2023/05/25 04:44:48;;;;;;;8.23;1.55;;;;;;;;;;5033213;28;20033;-78
2023/05/25 04:47:15;;;;;;;4.15;1.40;;;;;;;;;;5044218;28;20043;-78
2023/05/25 04:49:41;;;;;;;1.58;0.98;;;;;;;;;;5035823;28;20022;-78
2023/05/25 04:52:07;;;;;;;1.60;1.02;;;;;;;;;;5048354;28;20086;-78
2023/05/25 04:54:34;;;;;;;2.40;1.42;;;;;;;;;;5032016;28;20922;-78
2023/05/25 04:57:00;;;;;;;1.63;1.38;;;;;;;;;;5038991;28;20048;-78
2023/05/25 04:59:29;;;;;;;1.10;0.70;;;;;;;;;;5037678;28;20459;-78
2023/05/25 05:01:55;;;;;;;0.80;0.70;;;;;;;;;;5041488;28;20139;-78
2023/05/25 05:04:21;;;;;;;1.50;0.90;;;;;;;;;;5044496;28;20222;-78
2023/05/25 05:06:47;;;;;;;2.65;1.65;;;;;;;;;;5037778;28;20249;-78
2023/05/25 05:09:13;;;;;;;0.88;0.65;;;;;;;;;;5038229;28;20032;-78
2023/05/25 05:11:39;;;;;;;3.35;1.08;;;;;;;;;;5047549;28;20389;-78
2023/05/25 05:14:05;;;;;;;0.98;0.80;;;;;;;;;;5049413;28;20022;-81
2023/05/25 05:16:36;;;;;;;1.77;1.05;;;;;;;;;;5034568;28;20083;-73
2023/05/25 05:19:02;;;;;;;1.13;0.85;;;;;;;;;;5034543;28;20113;-73
2023/05/25 05:21:28;;;;;;;1.27;0.70;;;;;;;;;;5039705;28;20086;-74
2023/05/25 05:23:55;;;;;;;1.65;1.02;;;;;;;;;;5040750;28;20037;-74
2023/05/25 05:26:21;;;;;;;0.70;0.70;;;;;;;;;;5044994;28;20045;-73
2023/05/25 05:28:47;;;;;;;2.08;1.27;;;;;;;;;;5045480;28;20884;-73
2023/05/25 05:31:16;;;;;;;1.58;1.10;;;;;;;;;;5047784;28;20475;-75
2023/05/25 05:33:42;;;;;;;1.50;1.02;;;;;;;;;;5046816;28;20028;-73
2023/05/25 05:36:08;;;;;;;2.65;1.00;;;;;;;;;;5046656;28;20036;-74
2023/05/25 05:38:34;;;;;;;2.15;1.30;;;;;;;;;;5043387;28;20033;-74
2023/05/25 05:41:01;;;;;;;2.40;0.90;;;;;;;;;;5048455;28;20025;-74
2023/05/25 05:43:27;;;;;;;2.95;1.30;;;;;;;;;;5047059;28;20785;-74
2023/05/25 05:45:53;;;;;;;1.10;1.00;;;;;;;;;;5047501;28;20041;-73
2023/05/25 05:48:19;;;;;;;1.20;1.08;;;;;;;;;;5048512;28;20036;-73
2023/05/25 05:50:45;;;;;;;3.00;1.00;;;;;;;;;;5046308;28;20037;-74
2023/05/25 05:53:11;;;;;;;1.23;0.95;;;;;;;;;;5047889;28;20037;-74
2023/05/25 05:55:37;;;;;;;1.20;1.10;;;;;;;;;;5046045;28;20336;-74
2023/05/25 05:58:03;;;;;;;0.82;0.82;;;;;;;;;;5048129;28;20487;-73
2023/05/25 06:00:29;;;;;;;0.77;0.77;;;;;;;;;;5045641;28;20044;-73
2023/05/25 06:02:55;;;;;;;4.35;1.10;;;;;;;;;;5046825;28;20033;-73
2023/05/25 06:05:21;;;;;;;1.90;1.10;;;;;;;;;;5044404;28;20110;-74
2023/05/25 06:07:48;;;;;;;1.63;1.02;;;;;;;;;;5044453;28;20057;-76
2023/05/25 06:10:14;;;;;;;1.08;0.73;;;;;;;;;;5045507;28;20090;-77
2023/05/25 06:12:40;;;;;;;2.22;0.88;;;;;;;;;;5042734;28;20114;-74
2023/05/25 06:15:06;;;;;;;6.75;1.00;;;;;;;;;;5042861;28;20033;-75
2023/05/25 06:17:32;;;;;;;1.23;0.90;;;;;;;;;;5048332;28;20104;-74
2023/05/25 06:19:58;;;;;;;3.95;1.38;;;;;;;;;;5045422;28;20040;-75
2023/05/25 06:22:26;;;;;;;2.90;1.05;;;;;;;;;;5044749;28;20090;-75
2023/05/25 06:24:52;;;;;;;2.17;1.08;;;;;;;;;;5047489;28;20033;-75
2023/05/25 06:27:18;;;;;;;2.40;1.13;;;;;;;;;;5041839;28;20033;-75
2023/05/25 06:29:44;;;;;;;1.40;1.10;;;;;;;;;;5046345;28;20040;-74
2023/05/25 06:32:10;;;;;;;1.77;0.98;;;;;;;;;;5029118;28;20055;-75
2023/05/25 06:34:37;;;;;;;4.43;1.50;;;;;;;;;;5041095;28;20025;-75
2023/05/25 06:37:03;;;;;;;5.55;1.33;;;;;;;;;;5036875;28;20030;-75
2023/05/25 06:39:29;;;;;;;4.03;1.23;;;;;;;;;;5034847;28;20035;-77
2023/05/25 06:41:55;;;;;;;1.83;1.20;;;;;;;;;;5047038;28;20104;-80
2023/05/25 06:44:23;;;;;;;2.90;1.25;;;;;;;;;;5049663;28;20101;-77
2023/05/25 06:46:49;;;;;;;1.67;1.15;;;;;;;;;;5036532;28;20112;-79
2023/05/25 06:49:15;;;;;;;1.60;1.20;;;;;;;;;;5038325;28;20036;-81
2023/05/25 06:51:41;;;;;;;2.67;1.35;;;;;;;;;;5040157;28;20072;-79
2023/05/25 06:54:07;;;;;;;2.20;1.30;;;;;;;;;;5034850;28;20043;-76
2023/05/25 06:56:34;;;;;;;3.63;2.40;;;;;;;;;;5034786;28;20013;-78
2023/05/25 06:59:00;;;;;;;3.33;1.33;;;;;;;;;;5043449;28;20120;-77
2023/05/25 07:01:25;;;;;;;3.78;1.13;;;;;;;;;;5046318;28;20036;-76
2023/05/25 07:03:51;;;;;;;6.25;1.52;;;;;;;;;;5039130;28;20045;-78
2023/05/25 07:06:17;;;;;;;3.88;1.23;;;;;;;;;;5047358;28;20040;-76
2023/05/25 07:08:43;;;;;;;4.07;1.42;;;;;;;;;;5036443;28;20071;-76
2023/05/25 07:11:11;;;;;;;1.67;1.23;;;;;;;;;;5044472;28;20060;-76
2023/05/25 07:13:37;;;;;;;4.28;1.33;;;;;;;;;;5036627;28;20037;-75
2023/05/25 07:16:03;;;;;;;2.85;1.23;;;;;;;;;;5048958;28;20040;-76
2023/05/25 07:19:04;;;;;;;1.50;1.20;;;;;;;;;;5040078;28;20460;-76
2023/05/25 07:21:35;;;;;;;1.60;1.10;;;;;;;;;;4996092;28;20037;-75
2023/05/25 07:24:01;;;;;;;1.60;1.30;;;;;;;;;;5049530;28;20226;-75
2023/05/25 07:26:27;;;;;;;3.35;1.20;;;;;;;;;;5047784;28;20036;-76
2023/05/25 07:28:53;;;;;;;2.15;1.33;;;;;;;;;;5044252;28;20514;-77
2023/05/25 07:31:19;;;;;;;3.20;0.98;;;;;;;;;;5042783;28;20029;-76
2023/05/25 07:33:45;;;;;;;2.13;0.90;;;;;;;;;;5049437;28;20047;-76
2023/05/25 07:36:11;;;;;;;1.75;1.10;;;;;;;;;;5048952;28;20535;-76
2023/05/25 07:38:37;;;;;;;2.42;1.00;;;;;;;;;;5049553;28;20090;-76
2023/05/25 07:41:03;;;;;;;1.33;1.15;;;;;;;;;;5045551;28;20030;-76
2023/05/25 07:43:30;;;;;;;1.10;0.75;;;;;;;;;;5036758;28;20021;-75
2023/05/25 07:45:56;;;;;;;2.17;1.27;;;;;;;;;;5043362;28;20063;-75
2023/05/25 07:48:22;;;;;;;3.80;1.73;;;;;;;;;;5041488;28;20029;-76
2023/05/25 07:50:48;;;;;;;1.50;1.20;;;;;;;;;;5048900;28;20029;-76
2023/05/25 07:53:14;;;;;;;1.63;1.35;;;;;;;;;;5049036;28;20040;-77
2023/05/25 07:55:40;;;;;;;1.20;0.98;;;;;;;;;;5048654;28;20060;-76
2023/05/25 07:58:09;;;;;;;2.15;1.52;;;;;;;;;;5039205;28;20025;-76
2023/05/25 08:00:35;;;;;;;0.80;0.80;;;;;;;;;;5048871;28;20032;-76
2023/05/25 08:03:01;;;;;;;0.88;0.75;;;;;;;;;;5048155;28;20021;-76
2023/05/25 08:05:27;;;;;;;2.00;1.50;;;;;;;;;;5048668;28;20033;-76
2023/05/25 08:07:53;;;;;;;1.25;0.90;;;;;;;;;;5045553;28;20075;-76
2023/05/25 08:10:20;;;;;;;2.10;1.63;;;;;;;;;;5046472;28;20068;-76
2023/05/25 08:12:46;;;;;;;1.80;1.00;;;;;;;;;;5048749;28;20141;-76
2023/05/25 08:15:12;;;;;;;4.10;1.52;;;;;;;;;;5048424;28;20029;-76
2023/05/25 08:17:38;;;;;;;1.90;1.20;;;;;;;;;;5048208;28;20138;-77
2023/05/25 08:20:08;;;;;;;1.58;0.80;;;;;;;;;;5033706;28;20025;-76
2023/05/25 08:22:34;;;;;;;1.42;0.95;;;;;;;;;;5034841;28;20535;-76
2023/05/25 08:25:00;;;;;;;0.75;0.68;;;;;;;;;;5043116;28;20510;-76
2023/05/25 08:27:26;;;;;;;1.20;1.10;;;;;;;;;;5048447;28;20021;-76
2023/05/25 08:29:52;;;;;;;1.90;1.00;;;;;;;;;;5048260;28;20550;-75
2023/05/25 08:32:18;;;;;;;1.75;1.23;;;;;;;;;;5048161;28;20025;-76
2023/05/25 08:34:45;;;;;;;0.75;0.75;;;;;;;;;;5042731;28;20569;-75
2023/05/25 08:37:11;;;;;;;2.08;1.00;;;;;;;;;;5048264;28;20487;-76
2023/05/25 08:39:37;;;;;;;1.92;0.73;;;;;;;;;;5047981;28;20021;-76
2023/05/25 08:42:03;;;;;;;1.38;1.00;;;;;;;;;;5057200;28;20029;-76
2023/05/25 08:44:29;;;;;;;1.55;0.80;;;;;;;;;;5060553;28;20471;-76
2023/05/25 08:46:56;;;;;;;2.72;0.82;;;;;;;;;;5048009;28;20086;-76
2023/05/25 08:49:22;;;;;;;1.88;0.88;;;;;;;;;;5048522;28;20112;-75
2023/05/25 08:51:49;;;;;;;1.63;1.05;;;;;;;;;;5047879;28;20132;-75
2023/05/25 08:54:17;;;;;;;2.58;1.00;;;;;;;;;;5047616;28;20033;-76
2023/05/25 08:56:48;;;;;;;1.42;1.17;;;;;;;;;;5039587;28;20025;-75
2023/05/25 08:59:14;;;;;;;1.00;0.90;;;;;;;;;;5047497;28;20154;-76
2023/05/25 09:01:43;;;;;;;1.23;1.13;;;;;;;;;;5047806;28;20392;-76
2023/05/25 09:04:12;;;;;;;1.70;0.80;;;;;;;;;;5047380;28;20045;-76
2023/05/25 09:06:38;;;;;;;0.93;0.88;;;;;;;;;;5033675;28;20030;-76
2023/05/25 09:09:04;;;;;;;1.23;1.13;;;;;;;;;;5063570;28;20032;-76
2023/05/25 09:11:31;;;;;;;1.00;0.88;;;;;;;;;;5067792;28;20047;-76
2023/05/25 09:13:58;;;;;;;2.65;1.23;;;;;;;;;;5067818;28;20024;-76
2023/05/25 09:16:25;;;;;;;0.82;0.80;;;;;;;;;;5044529;28;20044;-75
2023/05/25 09:18:51;;;;;;;1.20;1.08;;;;;;;;;;5044163;28;20029;-76
2023/05/25 09:21:17;;;;;;;2.40;0.82;;;;;;;;;;5047824;28;20071;-76
2023/05/25 09:23:43;;;;;;;1.35;1.08;;;;;;;;;;5047650;28;20029;-76
2023/05/25 09:26:09;;;;;;;2.22;0.85;;;;;;;;;;5045680;28;20083;-76
2023/05/25 09:28:35;;;;;;;1.73;1.00;;;;;;;;;;5039382;28;20086;-75
2023/05/25 09:31:01;;;;;;;1.83;1.50;;;;;;;;;;5046204;28;20037;-76
2023/05/25 09:33:27;;;;;;;0.70;0.70;;;;;;;;;;5047739;28;20049;-75
2023/05/25 09:35:54;;;;;;;1.58;1.20;;;;;;;;;;5047747;28;20426;-76
2023/05/25 09:38:20;;;;;;;1.55;1.00;;;;;;;;;;5034231;28;20112;-76
2023/05/25 09:40:46;;;;;;;1.25;0.93;;;;;;;;;;5047707;28;20116;-76
2023/05/25 09:43:12;;;;;;;1.15;0.82;;;;;;;;;;5066075;28;20020;-77
2023/05/25 09:45:38;;;;;;;2.47;0.80;;;;;;;;;;5067431;28;20028;-75
2023/05/25 09:48:06;;;;;;;1.10;0.90;;;;;;;;;;5049891;28;20095;-77
2023/05/25 09:50:32;;;;;;;1.15;0.77;;;;;;;;;;5047842;28;20353;-77
2023/05/25 09:52:59;;;;;;;1.23;0.90;;;;;;;;;;5047244;28;20021;-77
2023/05/25 09:55:28;;;;;;;3.03;1.00;;;;;;;;;;5047705;28;20492;-77
2023/05/25 09:57:55;;;;;;;1.60;1.05;;;;;;;;;;5044562;28;20053;-77
2023/05/25 10:00:22;;;;;;;1.23;0.73;;;;;;;;;;5040128;28;20017;-76
2023/05/25 10:02:48;;;;;;;1.33;0.98;;;;;;;;;;5047432;28;20025;-76
2023/05/25 10:05:14;;;;;;;1.08;0.70;;;;;;;;;;5047792;28;20061;-76
2023/05/25 10:07:40;;;;;;;1.10;0.90;;;;;;;;;;5042913;28;20034;-77
2023/05/25 10:10:07;;;;;;;0.82;0.70;;;;;;;;;;5044065;28;20110;-78
2023/05/25 10:12:35;;;;;;;0.80;0.80;;;;;;;;;;5051179;28;20496;-77
2023/05/25 10:15:02;;;;;;;1.38;1.00;;;;;;;;;;5050340;28;20032;-77
2023/05/25 10:17:29;;;;;;;1.08;0.80;;;;;;;;;;5050790;28;20048;-77
2023/05/25 10:19:59;;;;;;;3.92;0.85;;;;;;;;;;5045567;28;20029;-77
2023/05/25 10:22:28;;;;;;;1.02;0.90;;;;;;;;;;5050913;28;20021;-77
2023/05/25 10:24:57;;;;;;;1.60;1.05;;;;;;;;;;5050579;28;20033;-77
2023/05/25 10:27:24;;;;;;;0.80;0.70;;;;;;;;;;5050835;28;20057;-77
2023/05/25 10:29:51;;;;;;;1.50;1.00;;;;;;;;;;5041766;28;20029;-77
2023/05/25 10:32:17;;;;;;;0.85;0.85;;;;;;;;;;5050298;28;20036;-76
2023/05/25 10:34:44;;;;;;;0.77;0.77;;;;;;;;;;5050556;28;20722;-78
2023/05/25 10:37:11;;;;;;;1.30;0.70;;;;;;;;;;5050770;28;20059;-77
2023/05/25 10:39:38;;;;;;;0.75;0.68;;;;;;;;;;5047340;28;20032;-76
2023/05/25 10:42:05;;;;;;;1.02;0.75;;;;;;;;;;5059535;28;20024;-77
2023/05/25 10:44:31;;;;;;;3.75;1.30;;;;;;;;;;5071448;28;20028;-76
2023/05/25 10:47:00;;;;;;;0.90;0.73;;;;;;;;;;5071047;28;20487;-77
2023/05/25 10:49:32;;;;;;;1.63;0.63;;;;;;;;;;5070848;28;20150;-76
2023/05/25 10:51:58;;;;;;;3.35;1.02;;;;;;;;;;5048686;28;20020;-77
2023/05/25 10:54:28;;;;;;;1.42;0.85;;;;;;;;;;5050900;28;20021;-77
2023/05/25 10:57:33;;;;;;;1.60;0.90;;;;;;;;;;5050836;28;20525;-76
2023/05/25 11:00:05;;;;;;;0.73;0.70;;;;;;;;;;5007439;28;20057;-76
2023/05/25 11:02:47;;;;;;;0.73;0.70;;;;;;;;;;5000021;28;20041;-76
2023/05/25 11:05:28;;;;;;;0.52;0.52;;;;;;;;;;5054237;28;20053;-76
2023/05/25 11:07:58;;;;;;;0.70;0.70;;;;;;;;;;5070899;28;20047;-76
2023/05/25 11:10:41;;;;;;;1.48;1.05;;;;;;;;;;5066684;28;20086;-77
2023/05/25 11:13:26;;;;;;;0.93;0.80;;;;;;;;;;5040755;28;20032;-76
2023/05/25 11:16:10;;;;;;;1.98;0.93;;;;;;;;;;5050726;28;20043;-77
2023/05/25 11:18:37;;;;;;;1.30;1.13;;;;;;;;;;5050137;28;20781;-76
2023/05/25 11:21:13;;;;;;;1.85;0.80;;;;;;;;;;5048045;28;20021;-76
2023/05/25 11:23:52;;;;;;;2.78;0.90;;;;;;;;;;5049120;28;20029;-77
2023/05/25 11:26:21;;;;;;;1.90;0.82;;;;;;;;;;5050891;28;20044;-77
2023/05/25 11:28:47;;;;;;;1.10;0.98;;;;;;;;;;5050320;28;20032;-77
2023/05/25 11:31:13;;;;;;;1.60;1.30;;;;;;;;;;5047919;28;20036;-76
2023/05/25 11:33:43;;;;;;;1.02;0.93;;;;;;;;;;5036153;28;20013;-76
2023/05/25 11:36:10;;;;;;;1.15;1.00;;;;;;;;;;5045373;28;20111;-76
2023/05/25 11:38:44;;;;;;;2.58;1.17;;;;;;;;;;5050552;28;20029;-75
2023/05/25 11:41:17;;;;;;;1.65;0.60;;;;;;;;;;5052120;28;20032;-76
2023/05/25 11:43:44;;;;;;;1.95;1.15;;;;;;;;;;5051885;28;20021;-75
2023/05/25 11:46:11;;;;;;;1.00;0.90;;;;;;;;;;5040950;28;20038;-76
2023/05/25 11:48:42;;;;;;;1.73;1.13;;;;;;;;;;5040492;28;20493;-76
2023/05/25 11:51:08;;;;;;;0.80;0.70;;;;;;;;;;5046719;28;20033;-77
2023/05/25 11:53:34;;;;;;;1.67;1.08;;;;;;;;;;5046240;28;20488;-77
2023/05/25 11:56:00;;;;;;;0.93;0.88;;;;;;;;;;5040580;28;20029;-75
2023/05/25 11:58:32;;;;;;;1.08;0.90;;;;;;;;;;5046093;28;20051;-77
2023/05/25 12:01:13;;;;;;;0.65;0.65;;;;;;;;;;5044014;28;20061;-77
2023/05/25 12:03:39;;;;;;;1.45;0.88;;;;;;;;;;5047799;28;20116;-77
2023/05/25 12:06:05;;;;;;;1.33;0.75;;;;;;;;;;5040005;28;20451;-77
2023/05/25 12:08:34;;;;;;;1.85;1.33;;;;;;;;;;5042523;28;20037;-77
2023/05/25 12:11:00;;;;;;;5.30;1.10;;;;;;;;;;5048759;28;20024;-74
2023/05/25 12:13:26;;;;;;;4.07;1.40;;;;;;;;;;5046297;28;20047;-76
2023/05/25 12:15:59;;;;;;;1.33;1.00;;;;;;;;;;5045523;28;21867;-76
2023/05/25 12:18:28;;;;;;;3.78;1.40;;;;;;;;;;5039169;28;20036;-76
2023/05/25 12:20:56;;;;;;;2.90;1.48;;;;;;;;;;5037219;28;20052;-76
2023/05/25 12:23:22;;;;;;;1.00;0.88;;;;;;;;;;5047324;28;20025;-76
2023/05/25 12:25:50;;;;;;;4.90;1.20;;;;;;;;;;5034463;28;20037;-76
2023/05/25 12:28:16;;;;;;;3.45;1.80;;;;;;;;;;5041762;28;20021;-74
2023/05/25 12:30:44;;;;;;;2.75;1.45;;;;;;;;;;5038316;28;20071;-77
2023/05/25 12:33:13;;;;;;;4.60;1.17;;;;;;;;;;5047190;28;20549;-73
2023/05/25 12:35:49;;;;;;;2.90;1.10;;;;;;;;;;5042188;28;20029;-77
2023/05/25 12:38:18;;;;;;;3.75;1.42;;;;;;;;;;5035534;28;20384;-76
2023/05/25 12:40:45;;;;;;;1.67;1.25;;;;;;;;;;5043260;28;20096;-77
2023/05/25 12:43:11;;;;;;;3.55;1.58;;;;;;;;;;5065785;28;20027;-77
2023/05/25 12:45:41;;;;;;;2.20;1.30;;;;;;;;;;5032670;28;20025;-77
2023/05/25 12:48:07;;;;;;;2.63;1.50;;;;;;;;;;5047343;28;20102;-74
2023/05/25 12:50:33;;;;;;;3.17;1.60;;;;;;;;;;5037199;28;20057;-75
2023/05/25 12:53:00;;;;;;;4.10;1.40;;;;;;;;;;5045167;28;20090;-76
2023/05/25 12:55:30;;;;;;;4.20;1.40;;;;;;;;;;5042307;28;20543;-76
2023/05/25 12:57:57;;;;;;;3.60;1.25;;;;;;;;;;5046812;28;20025;-76
2023/05/25 13:00:43;;;;;;;1.77;1.50;;;;;;;;;;5041959;28;20064;-75
2023/05/25 13:03:12;;;;;;;2.45;1.42;;;;;;;;;;5038196;28;20029;-76
2023/05/25 13:05:38;;;;;;;3.67;1.42;;;;;;;;;;5038146;28;20029;-75
2023/05/25 13:08:04;;;;;;;1.50;1.20;;;;;;;;;;5041506;28;20025;-77
2023/05/25 13:10:31;;;;;;;4.03;1.70;;;;;;;;;;5040187;28;20404;-78
2023/05/25 13:12:58;;;;;;;4.05;1.95;;;;;;;;;;5047030;28;20028;-78
2023/05/25 13:15:25;;;;;;;2.33;2.05;;;;;;;;;;5045809;28;20041;-79
2023/05/25 13:17:51;;;;;;;3.03;1.63;;;;;;;;;;5043758;28;20100;-79
2023/05/25 13:20:18;;;;;;;2.13;1.48;;;;;;;;;;5044922;28;20029;-78
2023/05/25 13:22:45;;;;;;;2.70;1.30;;;;;;;;;;5041840;28;20079;-77
2023/05/25 13:25:12;;;;;;;2.05;1.38;;;;;;;;;;5047752;28;20087;-75
2023/05/25 13:27:40;;;;;;;1.70;1.27;;;;;;;;;;5040126;28;20052;-80
2023/05/25 13:30:06;;;;;;;1.63;1.02;;;;;;;;;;5032976;28;20056;-73
2023/05/25 13:32:32;;;;;;;1.85;1.42;;;;;;;;;;5043930;28;20029;-73
2023/05/25 13:34:59;;;;;;;2.95;1.60;;;;;;;;;;5030936;28;20391;-73
2023/05/25 13:37:26;;;;;;;2.60;1.25;;;;;;;;;;5036242;28;20164;-74
2023/05/25 13:39:55;;;;;;;4.25;1.55;;;;;;;;;;5031704;28;20021;-73
2023/05/25 13:42:21;;;;;;;2.67;1.33;;;;;;;;;;5036652;28;20033;-74
2023/05/25 13:44:47;;;;;;;2.10;1.35;;;;;;;;;;5033160;28;20125;-74
2023/05/25 13:47:13;;;;;;;2.55;1.30;;;;;;;;;;5046876;28;20035;-73
2023/05/25 13:49:39;;;;;;;1.95;1.50;;;;;;;;;;5037338;28;20037;-72
2023/05/25 13:52:11;;;;;;;2.30;1.30;;;;;;;;;;5036055;28;20033;-73
2023/05/25 13:54:36;;;;;;;2.47;1.60;;;;;;;;;;5044117;28;20033;-74
2023/05/25 13:57:02;;;;;;;2.13;1.50;;;;;;;;;;5034689;28;20123;-73
2023/05/25 13:59:29;;;;;;;1.33;1.15;;;;;;;;;;5034793;28;20059;-73
2023/05/25 14:01:55;;;;;;;3.10;1.85;;;;;;;;;;5047506;28;20106;-72
2023/05/25 14:04:21;;;;;;;2.15;1.25;;;;;;;;;;5036719;28;20121;-73
2023/05/25 14:06:47;;;;;;;2.75;1.90;;;;;;;;;;5036340;28;20116;-74
2023/05/25 14:09:13;;;;;;;2.33;1.55;;;;;;;;;;5037028;28;20029;-75
2023/05/25 14:11:39;;;;;;;2.58;1.27;;;;;;;;;;5033704;28;20026;-73
2023/05/25 14:14:07;;;;;;;3.10;1.50;;;;;;;;;;5044012;28;20029;-74
2023/05/25 14:16:34;;;;;;;4.00;1.42;;;;;;;;;;5036525;28;20020;-73
2023/05/25 14:19:00;;;;;;;4.13;1.42;;;;;;;;;;5031811;28;20028;-73
2023/05/25 14:21:27;;;;;;;2.55;1.40;;;;;;;;;;5037359;28;20017;-73
2023/05/25 14:23:52;;;;;;;3.17;1.65;;;;;;;;;;5033751;28;20076;-76
2023/05/25 14:26:19;;;;;;;4.75;1.67;;;;;;;;;;5054767;28;20254;-75
2023/05/25 14:28:45;;;;;;;1.65;1.42;;;;;;;;;;5049044;28;20031;-75
2023/05/25 14:31:11;;;;;;;2.22;1.30;;;;;;;;;;5031602;28;20036;-77
2023/05/25 14:33:37;;;;;;;2.72;1.58;;;;;;;;;;5037626;28;20049;-76
2023/05/25 14:36:04;;;;;;;4.03;1.40;;;;;;;;;;5040740;28;20036;-76
2023/05/25 14:38:31;;;;;;;2.40;1.42;;;;;;;;;;5030719;28;20049;-78
2023/05/25 14:40:57;;;;;;;3.28;1.73;;;;;;;;;;5042227;28;20035;-77
2023/05/25 14:43:23;;;;;;;2.60;1.40;;;;;;;;;;5044250;28;20411;-77
2023/05/25 14:45:49;;;;;;;1.60;1.30;;;;;;;;;;5041231;28;20033;-76